sensor_id;sensor_type;location;lat;lon;timestamp;P1;durP1;ratioP1;P2;durP2;ratioP2
78799;SDS011;68148;55.328;86.106;2023-07-20T00:00:19;8.70;;;2.70;;
78799;SDS011;68148;55.328;86.106;2023-07-20T00:02:45;6.07;;;2.55;;
78799;SDS011;68148;55.328;86.106;2023-07-20T00:05:14;6.03;;;2.22;;
78799;SDS011;68148;55.328;86.106;2023-07-20T00:07:40;15.82;;;2.42;;
78799;SDS011;68148;55.328;86.106;2023-07-20T00:10:10;10.32;;;3.20;;
78799;SDS011;68148;55.328;86.106;2023-07-20T00:12:37;12.20;;;3.00;;
78799;SDS011;68148;55.328;86.106;2023-07-20T00:15:02;9.70;;;3.20;;
78799;SDS011;68148;55.328;86.106;2023-07-20T00:17:29;16.30;;;2.67;;
78799;SDS011;68148;55.328;86.106;2023-07-20T00:19:55;13.60;;;2.75;;
78799;SDS011;68148;55.328;86.106;2023-07-20T00:22:20;6.68;;;2.30;;
78799;SDS011;68148;55.328;86.106;2023-07-20T00:24:46;4.85;;;2.67;;
78799;SDS011;68148;55.328;86.106;2023-07-20T00:27:12;7.30;;;2.80;;
78799;SDS011;68148;55.328;86.106;2023-07-20T00:29:38;6.88;;;2.45;;
78799;SDS011;68148;55.328;86.106;2023-07-20T00:32:07;18.30;;;2.95;;
78799;SDS011;68148;55.328;86.106;2023-07-20T00:34:34;5.25;;;2.80;;
78799;SDS011;68148;55.328;86.106;2023-07-20T00:36:59;11.63;;;2.92;;
78799;SDS011;68148;55.328;86.106;2023-07-20T00:39:26;6.15;;;2.80;;
78799;SDS011;68148;55.328;86.106;2023-07-20T00:41:52;6.80;;;2.58;;
78799;SDS011;68148;55.328;86.106;2023-07-20T00:44:17;15.43;;;2.90;;
78799;SDS011;68148;55.328;86.106;2023-07-20T00:46:44;25.98;;;3.33;;
78799;SDS011;68148;55.328;86.106;2023-07-20T00:49:10;14.13;;;2.42;;
78799;SDS011;68148;55.328;86.106;2023-07-20T00:51:35;16.67;;;3.22;;
78799;SDS011;68148;55.328;86.106;2023-07-20T00:54:01;7.97;;;2.80;;
78799;SDS011;68148;55.328;86.106;2023-07-20T00:56:27;14.23;;;2.97;;
78799;SDS011;68148;55.328;86.106;2023-07-20T00:58:53;4.70;;;2.33;;
78799;SDS011;68148;55.328;86.106;2023-07-20T01:01:24;7.35;;;3.00;;
78799;SDS011;68148;55.328;86.106;2023-07-20T01:03:50;10.85;;;3.33;;
78799;SDS011;68148;55.328;86.106;2023-07-20T01:14:23;9.57;;;3.33;;
78799;SDS011;68148;55.328;86.106;2023-07-20T01:16:49;6.70;;;3.10;;
78799;SDS011;68148;55.328;86.106;2023-07-20T01:19:15;9.13;;;3.38;;
78799;SDS011;68148;55.328;86.106;2023-07-20T01:22:02;16.45;;;3.38;;
78799;SDS011;68148;55.328;86.106;2023-07-20T01:32:58;13.13;;;2.97;;
78799;SDS011;68148;55.328;86.106;2023-07-20T01:35:27;5.60;;;2.75;;
78799;SDS011;68148;55.328;86.106;2023-07-20T01:37:55;8.95;;;2.83;;
78799;SDS011;68148;55.328;86.106;2023-07-20T01:40:22;5.47;;;3.08;;
78799;SDS011;68148;55.328;86.106;2023-07-20T01:42:48;8.73;;;3.50;;
78799;SDS011;68148;55.328;86.106;2023-07-20T01:45:14;9.57;;;3.67;;
78799;SDS011;68148;55.328;86.106;2023-07-20T01:47:40;10.93;;;2.80;;
78799;SDS011;68148;55.328;86.106;2023-07-20T01:50:06;6.10;;;2.88;;
78799;SDS011;68148;55.328;86.106;2023-07-20T01:52:32;9.40;;;2.88;;
78799;SDS011;68148;55.328;86.106;2023-07-20T01:54:58;14.40;;;3.28;;
78799;SDS011;68148;55.328;86.106;2023-07-20T01:57:23;14.57;;;3.47;;
78799;SDS011;68148;55.328;86.106;2023-07-20T01:59:49;12.73;;;2.80;;
78799;SDS011;68148;55.328;86.106;2023-07-20T02:02:15;8.55;;;2.92;;
78799;SDS011;68148;55.328;86.106;2023-07-20T02:04:40;8.85;;;3.13;;
78799;SDS011;68148;55.328;86.106;2023-07-20T02:07:06;8.38;;;2.60;;
78799;SDS011;68148;55.328;86.106;2023-07-20T02:09:32;6.47;;;2.55;;
78799;SDS011;68148;55.328;86.106;2023-07-20T02:11:58;4.88;;;2.75;;
78799;SDS011;68148;55.328;86.106;2023-07-20T02:14:23;7.15;;;2.50;;
78799;SDS011;68148;55.328;86.106;2023-07-20T02:16:49;7.20;;;2.67;;
78799;SDS011;68148;55.328;86.106;2023-07-20T02:19:15;4.03;;;2.80;;
78799;SDS011;68148;55.328;86.106;2023-07-20T02:21:40;12.73;;;2.85;;
78799;SDS011;68148;55.328;86.106;2023-07-20T02:24:06;13.52;;;3.33;;
78799;SDS011;68148;55.328;86.106;2023-07-20T02:26:32;6.85;;;2.50;;
78799;SDS011;68148;55.328;86.106;2023-07-20T02:28:58;9.60;;;3.20;;
78799;SDS011;68148;55.328;86.106;2023-07-20T02:31:24;9.13;;;2.72;;
78799;SDS011;68148;55.328;86.106;2023-07-20T02:33:50;4.00;;;2.60;;
78799;SDS011;68148;55.328;86.106;2023-07-20T02:36:16;13.48;;;3.42;;
78799;SDS011;68148;55.328;86.106;2023-07-20T02:38:42;11.15;;;3.13;;
78799;SDS011;68148;55.328;86.106;2023-07-20T02:41:07;5.13;;;2.85;;
78799;SDS011;68148;55.328;86.106;2023-07-20T02:43:33;10.68;;;2.88;;
78799;SDS011;68148;55.328;86.106;2023-07-20T02:45:59;7.53;;;3.40;;
78799;SDS011;68148;55.328;86.106;2023-07-20T02:48:25;8.00;;;3.05;;
78799;SDS011;68148;55.328;86.106;2023-07-20T02:50:50;7.65;;;3.20;;
78799;SDS011;68148;55.328;86.106;2023-07-20T02:53:16;12.30;;;3.42;;
78799;SDS011;68148;55.328;86.106;2023-07-20T02:55:42;12.27;;;3.17;;
78799;SDS011;68148;55.328;86.106;2023-07-20T02:58:07;6.53;;;2.97;;
78799;SDS011;68148;55.328;86.106;2023-07-20T03:00:33;5.68;;;2.63;;
78799;SDS011;68148;55.328;86.106;2023-07-20T03:02:59;5.70;;;3.10;;
78799;SDS011;68148;55.328;86.106;2023-07-20T03:05:25;8.63;;;3.65;;
78799;SDS011;68148;55.328;86.106;2023-07-20T03:07:51;8.15;;;2.92;;
78799;SDS011;68148;55.328;86.106;2023-07-20T03:10:16;53.92;;;8.98;;
78799;SDS011;68148;55.328;86.106;2023-07-20T03:12:43;19.50;;;4.35;;
78799;SDS011;68148;55.328;86.106;2023-07-20T03:15:09;19.48;;;4.32;;
78799;SDS011;68148;55.328;86.106;2023-07-20T03:17:35;25.17;;;5.15;;
78799;SDS011;68148;55.328;86.106;2023-07-20T03:20:01;11.00;;;2.95;;
78799;SDS011;68148;55.328;86.106;2023-07-20T03:22:26;10.93;;;3.38;;
78799;SDS011;68148;55.328;86.106;2023-07-20T03:24:52;8.02;;;3.00;;
78799;SDS011;68148;55.328;86.106;2023-07-20T03:27:18;34.55;;;5.18;;
78799;SDS011;68148;55.328;86.106;2023-07-20T03:29:44;9.27;;;2.90;;
78799;SDS011;68148;55.328;86.106;2023-07-20T03:32:10;9.13;;;4.03;;
78799;SDS011;68148;55.328;86.106;2023-07-20T03:34:36;8.63;;;3.35;;
78799;SDS011;68148;55.328;86.106;2023-07-20T03:37:03;8.57;;;2.78;;
78799;SDS011;68148;55.328;86.106;2023-07-20T03:39:30;6.75;;;3.17;;
78799;SDS011;68148;55.328;86.106;2023-07-20T03:41:57;5.97;;;2.88;;
78799;SDS011;68148;55.328;86.106;2023-07-20T03:44:23;7.10;;;3.58;;
78799;SDS011;68148;55.328;86.106;2023-07-20T03:46:49;7.22;;;3.17;;
78799;SDS011;68148;55.328;86.106;2023-07-20T03:49:15;12.07;;;3.25;;
78799;SDS011;68148;55.328;86.106;2023-07-20T03:51:41;13.77;;;3.67;;
78799;SDS011;68148;55.328;86.106;2023-07-20T03:54:06;6.88;;;3.53;;
78799;SDS011;68148;55.328;86.106;2023-07-20T03:56:32;8.23;;;3.30;;
78799;SDS011;68148;55.328;86.106;2023-07-20T03:58:58;6.55;;;3.10;;
78799;SDS011;68148;55.328;86.106;2023-07-20T04:01:23;4.93;;;3.20;;
78799;SDS011;68148;55.328;86.106;2023-07-20T04:03:50;10.43;;;3.47;;
78799;SDS011;68148;55.328;86.106;2023-07-20T04:06:16;9.18;;;3.40;;
78799;SDS011;68148;55.328;86.106;2023-07-20T04:08:41;10.57;;;3.40;;
78799;SDS011;68148;55.328;86.106;2023-07-20T04:11:08;6.68;;;3.22;;
78799;SDS011;68148;55.328;86.106;2023-07-20T04:13:34;7.35;;;3.58;;
78799;SDS011;68148;55.328;86.106;2023-07-20T04:16:00;9.35;;;3.10;;
78799;SDS011;68148;55.328;86.106;2023-07-20T04:18:26;9.93;;;3.03;;
78799;SDS011;68148;55.328;86.106;2023-07-20T04:20:51;11.27;;;3.15;;
78799;SDS011;68148;55.328;86.106;2023-07-20T04:23:18;8.90;;;3.30;;
78799;SDS011;68148;55.328;86.106;2023-07-20T04:25:43;10.90;;;3.35;;
78799;SDS011;68148;55.328;86.106;2023-07-20T04:28:09;7.90;;;2.90;;
78799;SDS011;68148;55.328;86.106;2023-07-20T04:30:35;10.95;;;3.38;;
78799;SDS011;68148;55.328;86.106;2023-07-20T04:33:02;6.32;;;3.00;;
78799;SDS011;68148;55.328;86.106;2023-07-20T04:38:16;5.40;;;3.13;;
78799;SDS011;68148;55.328;86.106;2023-07-20T04:40:44;8.98;;;3.60;;
78799;SDS011;68148;55.328;86.106;2023-07-20T04:43:14;9.70;;;2.90;;
78799;SDS011;68148;55.328;86.106;2023-07-20T04:45:42;4.60;;;2.38;;
78799;SDS011;68148;55.328;86.106;2023-07-20T04:48:11;8.02;;;2.95;;
78799;SDS011;68148;55.328;86.106;2023-07-20T04:50:41;5.78;;;2.75;;
78799;SDS011;68148;55.328;86.106;2023-07-20T04:53:09;5.10;;;3.13;;
78799;SDS011;68148;55.328;86.106;2023-07-20T04:55:35;7.25;;;2.92;;
78799;SDS011;68148;55.328;86.106;2023-07-20T04:58:00;4.25;;;2.95;;
78799;SDS011;68148;55.328;86.106;2023-07-20T05:00:28;5.25;;;2.45;;
78799;SDS011;68148;55.328;86.106;2023-07-20T05:02:54;5.47;;;3.05;;
78799;SDS011;68148;55.328;86.106;2023-07-20T05:05:20;5.97;;;3.33;;
78799;SDS011;68148;55.328;86.106;2023-07-20T05:07:45;12.95;;;3.22;;
78799;SDS011;68148;55.328;86.106;2023-07-20T05:10:11;5.30;;;3.05;;
78799;SDS011;68148;55.328;86.106;2023-07-20T05:12:37;5.60;;;2.75;;
78799;SDS011;68148;55.328;86.106;2023-07-20T05:15:03;8.90;;;2.60;;
78799;SDS011;68148;55.328;86.106;2023-07-20T05:17:29;4.07;;;2.70;;
78799;SDS011;68148;55.328;86.106;2023-07-20T05:19:55;11.82;;;3.13;;
78799;SDS011;68148;55.328;86.106;2023-07-20T05:22:21;7.85;;;3.20;;
78799;SDS011;68148;55.328;86.106;2023-07-20T05:24:47;6.53;;;2.72;;
78799;SDS011;68148;55.328;86.106;2023-07-20T05:27:13;20.38;;;4.10;;
78799;SDS011;68148;55.328;86.106;2023-07-20T05:29:48;8.95;;;3.53;;
78799;SDS011;68148;55.328;86.106;2023-07-20T05:32:14;6.93;;;3.00;;
78799;SDS011;68148;55.328;86.106;2023-07-20T05:34:40;4.75;;;2.65;;
78799;SDS011;68148;55.328;86.106;2023-07-20T05:37:06;6.22;;;3.30;;
78799;SDS011;68148;55.328;86.106;2023-07-20T05:39:32;6.40;;;3.05;;
78799;SDS011;68148;55.328;86.106;2023-07-20T05:41:58;7.70;;;2.97;;
78799;SDS011;68148;55.328;86.106;2023-07-20T05:44:24;3.10;;;2.60;;
78799;SDS011;68148;55.328;86.106;2023-07-20T05:46:50;10.20;;;2.45;;
78799;SDS011;68148;55.328;86.106;2023-07-20T05:49:16;15.35;;;3.50;;
78799;SDS011;68148;55.328;86.106;2023-07-20T05:51:41;5.65;;;3.03;;
78799;SDS011;68148;55.328;86.106;2023-07-20T05:54:07;6.35;;;2.80;;
78799;SDS011;68148;55.328;86.106;2023-07-20T05:56:33;8.27;;;2.75;;
78799;SDS011;68148;55.328;86.106;2023-07-20T05:58:59;6.05;;;2.75;;
78799;SDS011;68148;55.328;86.106;2023-07-20T06:01:25;4.13;;;3.05;;
78799;SDS011;68148;55.328;86.106;2023-07-20T06:03:50;6.47;;;2.70;;
78799;SDS011;68148;55.328;86.106;2023-07-20T06:06:16;5.50;;;3.15;;
78799;SDS011;68148;55.328;86.106;2023-07-20T06:08:42;5.88;;;2.45;;
78799;SDS011;68148;55.328;86.106;2023-07-20T06:11:08;4.20;;;3.08;;
78799;SDS011;68148;55.328;86.106;2023-07-20T06:16:00;5.10;;;3.05;;
78799;SDS011;68148;55.328;86.106;2023-07-20T06:18:26;4.68;;;2.70;;
78799;SDS011;68148;55.328;86.106;2023-07-20T06:20:52;10.63;;;2.75;;
78799;SDS011;68148;55.328;86.106;2023-07-20T06:23:18;6.97;;;2.17;;
78799;SDS011;68148;55.328;86.106;2023-07-20T06:25:45;4.07;;;2.83;;
78799;SDS011;68148;55.328;86.106;2023-07-20T06:28:11;6.30;;;2.80;;
78799;SDS011;68148;55.328;86.106;2023-07-20T06:30:38;10.65;;;3.28;;
78799;SDS011;68148;55.328;86.106;2023-07-20T06:33:03;5.20;;;2.58;;
78799;SDS011;68148;55.328;86.106;2023-07-20T06:35:29;6.47;;;2.72;;
78799;SDS011;68148;55.328;86.106;2023-07-20T06:37:55;4.32;;;2.60;;
78799;SDS011;68148;55.328;86.106;2023-07-20T06:40:21;14.90;;;3.30;;
78799;SDS011;68148;55.328;86.106;2023-07-20T06:42:47;4.75;;;2.60;;
78799;SDS011;68148;55.328;86.106;2023-07-20T06:45:12;5.68;;;2.20;;
78799;SDS011;68148;55.328;86.106;2023-07-20T06:47:38;10.15;;;3.63;;
78799;SDS011;68148;55.328;86.106;2023-07-20T06:50:05;4.93;;;2.80;;
78799;SDS011;68148;55.328;86.106;2023-07-20T06:52:32;7.93;;;3.00;;
78799;SDS011;68148;55.328;86.106;2023-07-20T06:54:58;7.82;;;2.88;;
78799;SDS011;68148;55.328;86.106;2023-07-20T06:57:24;4.35;;;2.80;;
78799;SDS011;68148;55.328;86.106;2023-07-20T06:59:50;4.57;;;2.63;;
78799;SDS011;68148;55.328;86.106;2023-07-20T07:02:16;3.40;;;2.58;;
78799;SDS011;68148;55.328;86.106;2023-07-20T07:07:09;4.72;;;2.80;;
78799;SDS011;68148;55.328;86.106;2023-07-20T07:09:35;3.10;;;2.17;;
78799;SDS011;68148;55.328;86.106;2023-07-20T07:12:01;6.00;;;2.60;;
78799;SDS011;68148;55.328;86.106;2023-07-20T07:14:26;7.13;;;2.85;;
78799;SDS011;68148;55.328;86.106;2023-07-20T07:16:52;4.05;;;2.33;;
78799;SDS011;68148;55.328;86.106;2023-07-20T07:19:18;3.97;;;3.20;;
78799;SDS011;68148;55.328;86.106;2023-07-20T07:21:44;3.80;;;2.92;;
78799;SDS011;68148;55.328;86.106;2023-07-20T07:24:10;3.50;;;2.70;;
78799;SDS011;68148;55.328;86.106;2023-07-20T07:26:36;14.00;;;3.17;;
78799;SDS011;68148;55.328;86.106;2023-07-20T07:29:02;5.80;;;2.85;;
78799;SDS011;68148;55.328;86.106;2023-07-20T07:31:29;5.50;;;2.72;;
78799;SDS011;68148;55.328;86.106;2023-07-20T07:33:55;5.85;;;2.35;;
78799;SDS011;68148;55.328;86.106;2023-07-20T07:36:22;5.10;;;2.60;;
78799;SDS011;68148;55.328;86.106;2023-07-20T07:38:47;3.95;;;2.40;;
78799;SDS011;68148;55.328;86.106;2023-07-20T07:41:13;4.40;;;3.10;;
78799;SDS011;68148;55.328;86.106;2023-07-20T07:43:39;4.28;;;2.90;;
78799;SDS011;68148;55.328;86.106;2023-07-20T07:46:05;4.10;;;2.80;;
78799;SDS011;68148;55.328;86.106;2023-07-20T07:48:31;3.80;;;2.85;;
78799;SDS011;68148;55.328;86.106;2023-07-20T07:50:56;5.47;;;2.92;;
78799;SDS011;68148;55.328;86.106;2023-07-20T07:53:22;12.02;;;3.20;;
78799;SDS011;68148;55.328;86.106;2023-07-20T07:56:08;3.45;;;2.90;;
78799;SDS011;68148;55.328;86.106;2023-07-20T07:58:35;7.72;;;2.22;;
78799;SDS011;68148;55.328;86.106;2023-07-20T08:01:01;11.13;;;2.80;;
78799;SDS011;68148;55.328;86.106;2023-07-20T08:03:26;4.60;;;2.72;;
78799;SDS011;68148;55.328;86.106;2023-07-20T08:05:55;4.07;;;2.70;;
78799;SDS011;68148;55.328;86.106;2023-07-20T08:08:21;6.00;;;2.65;;
78799;SDS011;68148;55.328;86.106;2023-07-20T08:10:47;8.38;;;2.80;;
78799;SDS011;68148;55.328;86.106;2023-07-20T08:13:13;10.30;;;2.88;;
78799;SDS011;68148;55.328;86.106;2023-07-20T08:15:41;9.40;;;2.72;;
78799;SDS011;68148;55.328;86.106;2023-07-20T08:18:13;4.25;;;2.78;;
78799;SDS011;68148;55.328;86.106;2023-07-20T08:20:39;8.38;;;2.97;;
78799;SDS011;68148;55.328;86.106;2023-07-20T08:23:08;4.38;;;2.00;;
78799;SDS011;68148;55.328;86.106;2023-07-20T08:25:35;5.00;;;2.90;;
78799;SDS011;68148;55.328;86.106;2023-07-20T08:28:01;4.53;;;2.53;;
78799;SDS011;68148;55.328;86.106;2023-07-20T08:30:27;3.80;;;2.75;;
78799;SDS011;68148;55.328;86.106;2023-07-20T08:33:05;4.15;;;2.80;;
78799;SDS011;68148;55.328;86.106;2023-07-20T08:35:31;5.82;;;3.30;;
78799;SDS011;68148;55.328;86.106;2023-07-20T08:37:57;11.50;;;2.78;;
78799;SDS011;68148;55.328;86.106;2023-07-20T08:40:22;10.38;;;3.22;;
78799;SDS011;68148;55.328;86.106;2023-07-20T08:42:48;7.18;;;2.63;;
78799;SDS011;68148;55.328;86.106;2023-07-20T08:45:15;9.07;;;3.03;;
78799;SDS011;68148;55.328;86.106;2023-07-20T08:47:43;9.80;;;2.95;;
78799;SDS011;68148;55.328;86.106;2023-07-20T08:50:12;6.97;;;2.97;;
78799;SDS011;68148;55.328;86.106;2023-07-20T08:52:40;8.95;;;3.00;;
78799;SDS011;68148;55.328;86.106;2023-07-20T08:55:06;7.05;;;3.38;;
78799;SDS011;68148;55.328;86.106;2023-07-20T08:57:33;8.90;;;3.58;;
78799;SDS011;68148;55.328;86.106;2023-07-20T09:00:00;5.97;;;3.28;;
78799;SDS011;68148;55.328;86.106;2023-07-20T09:02:28;5.43;;;3.22;;
78799;SDS011;68148;55.328;86.106;2023-07-20T09:07:20;11.68;;;3.20;;
78799;SDS011;68148;55.328;86.106;2023-07-20T09:09:47;4.72;;;3.22;;
78799;SDS011;68148;55.328;86.106;2023-07-20T09:12:15;50.60;;;4.90;;
78799;SDS011;68148;55.328;86.106;2023-07-20T09:14:44;8.93;;;3.75;;
78799;SDS011;68148;55.328;86.106;2023-07-20T09:17:13;5.78;;;2.97;;
78799;SDS011;68148;55.328;86.106;2023-07-20T09:19:47;7.25;;;2.80;;
78799;SDS011;68148;55.328;86.106;2023-07-20T09:22:16;15.35;;;3.60;;
78799;SDS011;68148;55.328;86.106;2023-07-20T09:24:42;8.20;;;3.05;;
78799;SDS011;68148;55.328;86.106;2023-07-20T09:27:09;5.65;;;3.05;;
78799;SDS011;68148;55.328;86.106;2023-07-20T09:29:35;18.20;;;3.55;;
78799;SDS011;68148;55.328;86.106;2023-07-20T09:32:19;36.90;;;4.38;;
78799;SDS011;68148;55.328;86.106;2023-07-20T09:34:46;13.30;;;3.70;;
78799;SDS011;68148;55.328;86.106;2023-07-20T09:37:12;22.80;;;4.45;;
78799;SDS011;68148;55.328;86.106;2023-07-20T09:39:45;14.93;;;3.30;;
78799;SDS011;68148;55.328;86.106;2023-07-20T09:42:11;13.85;;;4.00;;
78799;SDS011;68148;55.328;86.106;2023-07-20T09:44:38;10.88;;;3.33;;
78799;SDS011;68148;55.328;86.106;2023-07-20T09:47:04;6.00;;;3.67;;
78799;SDS011;68148;55.328;86.106;2023-07-20T09:49:31;10.55;;;3.17;;
78799;SDS011;68148;55.328;86.106;2023-07-20T09:51:57;12.93;;;4.15;;
78799;SDS011;68148;55.328;86.106;2023-07-20T09:54:23;9.02;;;3.88;;
78799;SDS011;68148;55.328;86.106;2023-07-20T09:56:52;11.63;;;3.63;;
78799;SDS011;68148;55.328;86.106;2023-07-20T10:01:44;11.07;;;4.05;;
78799;SDS011;68148;55.328;86.106;2023-07-20T10:04:11;10.35;;;3.88;;
78799;SDS011;68148;55.328;86.106;2023-07-20T10:06:42;5.60;;;3.38;;
78799;SDS011;68148;55.328;86.106;2023-07-20T10:09:09;9.05;;;3.30;;
78799;SDS011;68148;55.328;86.106;2023-07-20T10:11:36;14.02;;;3.90;;
78799;SDS011;68148;55.328;86.106;2023-07-20T10:14:04;13.07;;;3.78;;
78799;SDS011;68148;55.328;86.106;2023-07-20T10:16:31;15.57;;;3.97;;
78799;SDS011;68148;55.328;86.106;2023-07-20T10:21:47;5.85;;;3.25;;
78799;SDS011;68148;55.328;86.106;2023-07-20T10:24:16;5.90;;;3.33;;
78799;SDS011;68148;55.328;86.106;2023-07-20T10:26:43;7.13;;;4.22;;
78799;SDS011;68148;55.328;86.106;2023-07-20T10:29:09;5.88;;;3.58;;
78799;SDS011;68148;55.328;86.106;2023-07-20T10:31:37;7.60;;;4.13;;
78799;SDS011;68148;55.328;86.106;2023-07-20T10:34:03;7.45;;;3.60;;
78799;SDS011;68148;55.328;86.106;2023-07-20T10:36:30;9.18;;;3.55;;
78799;SDS011;68148;55.328;86.106;2023-07-20T10:38:56;7.35;;;3.75;;
78799;SDS011;68148;55.328;86.106;2023-07-20T10:44:01;5.10;;;3.38;;
78799;SDS011;68148;55.328;86.106;2023-07-20T10:49:04;14.40;;;4.18;;
78799;SDS011;68148;55.328;86.106;2023-07-20T10:56:42;14.00;;;3.60;;
78799;SDS011;68148;55.328;86.106;2023-07-20T10:59:18;12.10;;;3.58;;
78799;SDS011;68148;55.328;86.106;2023-07-20T11:01:46;11.25;;;4.30;;
78799;SDS011;68148;55.328;86.106;2023-07-20T11:04:12;11.05;;;3.78;;
78799;SDS011;68148;55.328;86.106;2023-07-20T11:06:42;14.15;;;3.47;;
78799;SDS011;68148;55.328;86.106;2023-07-20T11:09:09;11.73;;;3.50;;
78799;SDS011;68148;55.328;86.106;2023-07-20T11:11:39;13.90;;;3.67;;
78799;SDS011;68148;55.328;86.106;2023-07-20T11:19:13;7.07;;;3.75;;
78799;SDS011;68148;55.328;86.106;2023-07-20T11:21:41;7.55;;;4.05;;
78799;SDS011;68148;55.328;86.106;2023-07-20T11:24:07;9.48;;;3.85;;
78799;SDS011;68148;55.328;86.106;2023-07-20T11:26:44;8.85;;;4.38;;
78799;SDS011;68148;55.328;86.106;2023-07-20T11:29:16;11.38;;;5.00;;
78799;SDS011;68148;55.328;86.106;2023-07-20T11:31:43;5.45;;;3.83;;
78799;SDS011;68148;55.328;86.106;2023-07-20T11:34:11;10.30;;;4.32;;
78799;SDS011;68148;55.328;86.106;2023-07-20T11:36:42;10.93;;;4.47;;
78799;SDS011;68148;55.328;86.106;2023-07-20T11:39:12;11.00;;;4.72;;
78799;SDS011;68148;55.328;86.106;2023-07-20T11:41:43;7.63;;;5.05;;
78799;SDS011;68148;55.328;86.106;2023-07-20T11:44:11;9.68;;;4.75;;
78799;SDS011;68148;55.328;86.106;2023-07-20T11:46:37;12.40;;;4.30;;
78799;SDS011;68148;55.328;86.106;2023-07-20T11:49:04;8.88;;;4.80;;
78799;SDS011;68148;55.328;86.106;2023-07-20T11:51:30;9.52;;;4.65;;
78799;SDS011;68148;55.328;86.106;2023-07-20T11:53:58;9.82;;;4.53;;
78799;SDS011;68148;55.328;86.106;2023-07-20T11:56:26;15.05;;;5.15;;
78799;SDS011;68148;55.328;86.106;2023-07-20T11:58:56;9.90;;;5.30;;
78799;SDS011;68148;55.328;86.106;2023-07-20T12:01:23;10.40;;;4.95;;
78799;SDS011;68148;55.328;86.106;2023-07-20T12:03:49;9.05;;;5.15;;
78799;SDS011;68148;55.328;86.106;2023-07-20T12:06:15;8.68;;;3.95;;
78799;SDS011;68148;55.328;86.106;2023-07-20T12:08:41;7.10;;;4.68;;
78799;SDS011;68148;55.328;86.106;2023-07-20T12:11:08;11.50;;;4.75;;
78799;SDS011;68148;55.328;86.106;2023-07-20T12:13:35;5.85;;;5.10;;
78799;SDS011;68148;55.328;86.106;2023-07-20T12:16:09;7.82;;;5.10;;
78799;SDS011;68148;55.328;86.106;2023-07-20T12:18:41;9.65;;;5.18;;
78799;SDS011;68148;55.328;86.106;2023-07-20T12:21:07;9.80;;;5.30;;
78799;SDS011;68148;55.328;86.106;2023-07-20T12:23:34;7.57;;;5.03;;
78799;SDS011;68148;55.328;86.106;2023-07-20T12:26:02;12.30;;;5.18;;
78799;SDS011;68148;55.328;86.106;2023-07-20T12:28:28;7.93;;;5.22;;
78799;SDS011;68148;55.328;86.106;2023-07-20T12:30:54;6.82;;;4.82;;
78799;SDS011;68148;55.328;86.106;2023-07-20T12:33:20;10.50;;;5.53;;
78799;SDS011;68148;55.328;86.106;2023-07-20T12:35:45;10.35;;;5.38;;
78799;SDS011;68148;55.328;86.106;2023-07-20T12:38:11;10.40;;;5.82;;
78799;SDS011;68148;55.328;86.106;2023-07-20T12:40:37;9.70;;;5.55;;
78799;SDS011;68148;55.328;86.106;2023-07-20T12:43:03;7.93;;;4.78;;
78799;SDS011;68148;55.328;86.106;2023-07-20T12:45:28;9.95;;;5.10;;
78799;SDS011;68148;55.328;86.106;2023-07-20T12:47:54;9.35;;;6.57;;
78799;SDS011;68148;55.328;86.106;2023-07-20T12:50:20;11.23;;;6.45;;
78799;SDS011;68148;55.328;86.106;2023-07-20T12:52:46;12.05;;;7.20;;
78799;SDS011;68148;55.328;86.106;2023-07-20T12:55:11;11.65;;;5.07;;
78799;SDS011;68148;55.328;86.106;2023-07-20T12:57:37;7.65;;;5.55;;
78799;SDS011;68148;55.328;86.106;2023-07-20T13:00:08;10.13;;;6.15;;
78799;SDS011;68148;55.328;86.106;2023-07-20T13:02:35;10.02;;;6.20;;
78799;SDS011;68148;55.328;86.106;2023-07-20T13:05:01;8.57;;;5.53;;
78799;SDS011;68148;55.328;86.106;2023-07-20T13:07:37;8.95;;;5.68;;
78799;SDS011;68148;55.328;86.106;2023-07-20T13:10:04;9.93;;;5.63;;
78799;SDS011;68148;55.328;86.106;2023-07-20T13:12:31;9.98;;;5.95;;
78799;SDS011;68148;55.328;86.106;2023-07-20T13:14:58;8.90;;;6.30;;
78799;SDS011;68148;55.328;86.106;2023-07-20T13:17:24;9.57;;;6.40;;
78799;SDS011;68148;55.328;86.106;2023-07-20T13:19:50;11.57;;;6.93;;
78799;SDS011;68148;55.328;86.106;2023-07-20T13:22:15;9.13;;;7.05;;
78799;SDS011;68148;55.328;86.106;2023-07-20T13:24:44;11.40;;;6.53;;
78799;SDS011;68148;55.328;86.106;2023-07-20T13:27:10;12.15;;;6.95;;
78799;SDS011;68148;55.328;86.106;2023-07-20T13:29:36;11.25;;;7.43;;
78799;SDS011;68148;55.328;86.106;2023-07-20T13:32:02;8.38;;;5.93;;
78799;SDS011;68148;55.328;86.106;2023-07-20T13:34:28;13.27;;;6.55;;
78799;SDS011;68148;55.328;86.106;2023-07-20T13:36:54;9.75;;;6.70;;
78799;SDS011;68148;55.328;86.106;2023-07-20T13:39:19;15.35;;;8.98;;
78799;SDS011;68148;55.328;86.106;2023-07-20T13:41:45;14.73;;;8.43;;
78799;SDS011;68148;55.328;86.106;2023-07-20T13:44:11;23.52;;;13.80;;
78799;SDS011;68148;55.328;86.106;2023-07-20T13:46:37;22.95;;;9.38;;
78799;SDS011;68148;55.328;86.106;2023-07-20T13:49:02;26.20;;;10.25;;
78799;SDS011;68148;55.328;86.106;2023-07-20T13:51:29;18.60;;;9.98;;
78799;SDS011;68148;55.328;86.106;2023-07-20T13:53:55;31.17;;;20.23;;
78799;SDS011;68148;55.328;86.106;2023-07-20T13:56:24;19.63;;;12.13;;
78799;SDS011;68148;55.328;86.106;2023-07-20T13:58:50;15.35;;;8.82;;
78799;SDS011;68148;55.328;86.106;2023-07-20T14:01:18;15.70;;;8.00;;
78799;SDS011;68148;55.328;86.106;2023-07-20T14:03:44;15.68;;;8.43;;
78799;SDS011;68148;55.328;86.106;2023-07-20T14:06:10;12.15;;;6.75;;
78799;SDS011;68148;55.328;86.106;2023-07-20T14:08:36;14.32;;;8.82;;
78799;SDS011;68148;55.328;86.106;2023-07-20T14:11:03;10.00;;;7.90;;
78799;SDS011;68148;55.328;86.106;2023-07-20T14:13:29;13.13;;;7.75;;
78799;SDS011;68148;55.328;86.106;2023-07-20T14:15:55;10.63;;;6.38;;
78799;SDS011;68148;55.328;86.106;2023-07-20T14:18:21;10.50;;;7.60;;
78799;SDS011;68148;55.328;86.106;2023-07-20T14:20:47;11.23;;;7.95;;
78799;SDS011;68148;55.328;86.106;2023-07-20T14:23:13;14.77;;;8.52;;
78799;SDS011;68148;55.328;86.106;2023-07-20T14:25:39;12.45;;;7.90;;
78799;SDS011;68148;55.328;86.106;2023-07-20T14:28:05;11.63;;;7.90;;
78799;SDS011;68148;55.328;86.106;2023-07-20T14:30:31;14.13;;;7.32;;
78799;SDS011;68148;55.328;86.106;2023-07-20T14:32:57;13.23;;;8.20;;
78799;SDS011;68148;55.328;86.106;2023-07-20T14:35:23;12.95;;;8.23;;
78799;SDS011;68148;55.328;86.106;2023-07-20T14:37:48;11.38;;;7.40;;
78799;SDS011;68148;55.328;86.106;2023-07-20T14:40:17;10.70;;;7.72;;
78799;SDS011;68148;55.328;86.106;2023-07-20T14:42:43;14.90;;;8.63;;
78799;SDS011;68148;55.328;86.106;2023-07-20T14:45:09;10.63;;;7.88;;
78799;SDS011;68148;55.328;86.106;2023-07-20T14:47:35;11.57;;;7.30;;
78799;SDS011;68148;55.328;86.106;2023-07-20T14:50:01;10.88;;;7.95;;
78799;SDS011;68148;55.328;86.106;2023-07-20T14:52:27;9.50;;;7.28;;
78799;SDS011;68148;55.328;86.106;2023-07-20T14:54:53;13.38;;;8.18;;
78799;SDS011;68148;55.328;86.106;2023-07-20T14:57:19;11.45;;;8.00;;
78799;SDS011;68148;55.328;86.106;2023-07-20T14:59:45;14.98;;;8.15;;
78799;SDS011;68148;55.328;86.106;2023-07-20T15:02:11;11.95;;;7.47;;
78799;SDS011;68148;55.328;86.106;2023-07-20T15:04:39;12.88;;;8.05;;
78799;SDS011;68148;55.328;86.106;2023-07-20T15:07:11;13.65;;;6.82;;
78799;SDS011;68148;55.328;86.106;2023-07-20T15:09:37;13.88;;;7.35;;
78799;SDS011;68148;55.328;86.106;2023-07-20T15:12:03;13.93;;;7.68;;